Time;durP1;ratioP1;P1;durP2;ratioP2;P2;SDS_P1;SDS_P2;PMS_P1;PMS_P2;Temp;Humidity;BMP_temperature;BMP_pressure;BME280_temperature;BME280_humidity;BME280_pressure;Samples;Min_cycle;Max_cycle;Signal;HPM_P1;HPM_P2
2022/04/13 00:00:15;;;;;;;4.07;2.47;;;10.20;69.70;;;;;;5063323;28;20209;-51
2022/04/13 00:02:43;;;;;;;4.10;2.40;;;10.30;70.00;;;;;;5059610;28;20208;-44
2022/04/13 00:05:12;;;;;;;3.27;2.27;;;10.30;70.00;;;;;;5063298;28;20211;-51
2022/04/13 00:07:39;;;;;;;4.63;2.90;;;10.30;70.00;;;;;;5066179;28;20246;-44
2022/04/13 00:10:07;;;;;;;3.83;2.80;;;10.30;70.60;;;;;;5061136;28;20194;-50
2022/04/13 00:12:35;;;;;;;4.20;2.80;;;10.30;69.80;;;;;;5068221;28;20207;-50
2022/04/13 00:15:03;;;;;;;5.13;3.00;;;10.30;70.00;;;;;;5073168;28;20201;-50
2022/04/13 00:17:30;;;;;;;3.27;2.50;;;10.20;69.90;;;;;;5068269;28;20237;-45
2022/04/13 00:19:58;;;;;;;5.03;2.97;;;10.10;70.00;;;;;;5067776;28;20592;-51
2022/04/13 00:22:26;;;;;;;3.17;2.70;;;10.10;70.20;;;;;;5071313;28;20926;-50
2022/04/13 00:24:53;;;;;;;5.23;3.13;;;10.20;70.70;;;;;;5069348;28;20259;-51
2022/04/13 00:27:20;;;;;;;5.57;3.10;;;10.20;70.20;;;;;;5066037;28;20190;-52
2022/04/13 00:29:47;;;;;;;7.70;3.63;;;10.20;70.10;;;;;;5068478;28;20198;-45
2022/04/13 00:32:14;;;;;;;4.70;2.90;;;10.20;70.10;;;;;;5069677;28;20276;-50
2022/04/13 00:34:42;;;;;;;5.30;3.33;;;10.20;70.20;;;;;;5070545;28;20196;-48
2022/04/13 00:37:09;;;;;;;4.33;3.17;;;10.20;70.20;;;;;;5072439;28;20212;-49
2022/04/13 00:39:37;;;;;;;6.17;3.50;;;10.10;70.10;;;;;;5071205;28;20204;-50
2022/04/13 00:42:07;;;;;;;6.00;3.20;;;10.10;70.30;;;;;;5072497;28;20649;-48
2022/04/13 00:44:35;;;;;;;7.07;3.40;;;10.00;70.30;;;;;;5069939;28;20235;-48
2022/04/13 00:47:07;;;;;;;6.20;3.73;;;10.00;70.30;;;;;;5069091;28;20198;-47
2022/04/13 00:49:35;;;;;;;5.77;3.80;;;10.00;70.50;;;;;;5067982;28;20267;-43
2022/04/13 00:52:04;;;;;;;5.27;3.73;;;10.00;70.50;;;;;;5070945;28;20253;-48
2022/04/13 00:54:32;;;;;;;8.13;3.70;;;10.00;70.50;;;;;;5067168;28;20203;-51
2022/04/13 00:57:03;;;;;;;6.60;3.70;;;9.90;71.50;;;;;;5069979;28;20207;-49
2022/04/13 00:59:36;;;;;;;6.83;3.87;;;9.90;71.70;;;;;;5066765;28;20667;-48
2022/04/13 01:02:04;;;;;;;7.73;4.00;;;9.80;71.60;;;;;;5067166;28;20610;-50
2022/04/13 01:04:31;;;;;;;4.90;3.23;;;9.80;71.80;;;;;;5062076;28;20192;-44
2022/04/13 01:06:59;;;;;;;5.03;3.27;;;9.70;72.00;;;;;;5064162;28;20192;-46
2022/04/13 01:09:27;;;;;;;6.33;3.50;;;9.70;72.10;;;;;;5066594;28;20203;-49
2022/04/13 01:11:54;;;;;;;9.30;4.37;;;9.60;72.20;;;;;;5067932;28;20671;-46
2022/04/13 01:14:23;;;;;;;9.40;3.97;;;9.60;72.40;;;;;;5064522;28;20225;-42
2022/04/13 01:16:50;;;;;;;7.93;4.37;;;9.60;72.60;;;;;;5065171;28;20285;-41
2022/04/13 01:19:18;;;;;;;11.63;5.20;;;9.60;72.50;;;;;;5062607;28;20298;-43
2022/04/13 01:21:47;;;;;;;12.57;5.50;;;9.70;72.50;;;;;;5069267;28;20201;-43
2022/04/13 01:24:17;;;;;;;13.20;5.80;;;9.70;72.50;;;;;;5072160;28;20195;-45
2022/04/13 01:26:44;;;;;;;13.03;5.87;;;9.60;72.40;;;;;;5070723;28;20651;-41
2022/04/13 01:29:12;;;;;;;10.13;5.13;;;9.60;72.40;;;;;;5064895;28;20210;-40
2022/04/13 01:31:39;;;;;;;12.53;6.07;;;9.50;72.50;;;;;;5067731;28;20209;-41
2022/04/13 01:34:07;;;;;;;12.90;5.23;;;9.50;73.30;;;;;;5070519;28;20541;-44
2022/04/13 01:36:35;;;;;;;12.43;5.83;;;7.60;70.80;;;;;;5070017;28;20200;-42
2022/04/13 01:39:03;;;;;;;11.07;5.50;;;9.50;72.80;;;;;;5064066;28;20191;-42
2022/04/13 01:41:32;;;;;;;9.50;5.07;;;9.50;72.80;;;;;;5066069;28;20313;-41
2022/04/13 01:43:59;;;;;;;10.30;5.03;;;9.50;72.60;;;;;;5067581;28;20191;-45
2022/04/13 01:46:26;;;;;;;8.63;4.40;;;9.50;72.60;;;;;;5065882;28;20660;-42
2022/04/13 01:48:53;;;;;;;8.53;4.80;;;9.50;72.70;;;;;;5068407;28;20202;-42
2022/04/13 01:51:20;;;;;;;9.60;4.60;;;9.40;72.70;;;;;;5063037;28;20205;-42
2022/04/13 01:53:48;;;;;;;10.80;4.83;;;9.40;72.70;;;;;;5071275;28;20224;-43
2022/04/13 01:56:15;;;;;;;9.77;4.77;;;9.40;72.80;;;;;;5064388;28;20213;-43
2022/04/13 01:58:44;;;;;;;17.17;5.03;;;9.40;72.80;;;;;;5065208;28;20217;-43
2022/04/13 02:01:11;;;;;;;9.70;4.67;;;9.30;72.90;;;;;;5070440;28;20659;-44
2022/04/13 02:03:38;;;;;;;8.00;3.80;;;9.30;73.00;;;;;;5068767;28;20204;-49
2022/04/13 02:06:05;;;;;;;9.27;4.60;;;9.20;73.10;;;;;;5069867;28;20215;-46
2022/04/13 02:08:33;;;;;;;6.90;3.77;;;9.20;73.10;;;;;;5070245;28;20201;-42
2022/04/13 02:11:00;;;;;;;8.93;4.53;;;9.20;73.30;;;;;;5070959;28;20209;-44
2022/04/13 02:13:27;;;;;;;8.60;4.50;;;9.20;73.30;;;;;;5069799;28;20242;-45
2022/04/13 02:15:56;;;;;;;9.30;4.20;;;9.20;73.20;;;;;;5069772;28;20454;-46
2022/04/13 02:18:23;;;;;;;11.87;4.23;;;9.30;73.20;;;;;;5065815;28;20218;-45
2022/04/13 02:20:50;;;;;;;8.63;3.93;;;9.20;73.10;;;;;;5070321;28;20669;-43
2022/04/13 02:23:17;;;;;;;11.17;4.83;;;9.20;73.20;;;;;;5058061;28;20200;-45
2022/04/13 02:25:44;;;;;;;9.57;4.60;;;9.20;73.30;;;;;;5069751;28;20239;-47
2022/04/13 02:28:11;;;;;;;16.27;6.13;;;9.10;73.30;;;;;;5060339;28;20568;-42
2022/04/13 02:30:38;;;;;;;11.63;5.43;;;9.10;73.40;;;;;;5069532;28;20259;-41
2022/04/13 02:33:07;;;;;;;13.77;6.73;;;9.10;73.50;;;;;;5066027;28;20680;-44
2022/04/13 02:35:34;;;;;;;18.23;7.70;;;9.10;73.40;;;;;;5070120;28;20187;-42
2022/04/13 02:38:01;;;;;;;20.63;8.50;;;9.10;73.50;;;;;;5070082;28;20777;-44
2022/04/13 02:40:29;;;;;;;28.37;10.77;;;9.10;73.60;;;;;;5070808;28;20224;-51
2022/04/13 02:42:56;;;;;;;22.73;10.60;;;9.10;73.60;;;;;;5067300;28;20255;-47
2022/04/13 02:45:23;;;;;;;29.13;10.50;;;9.10;73.60;;;;;;5068924;28;20240;-47
2022/04/13 02:47:50;;;;;;;24.40;10.20;;;9.10;73.50;;;;;;5063321;28;20199;-45
2022/04/13 02:50:19;;;;;;;25.67;10.27;;;9.10;73.40;;;;;;5070828;28;20255;-44
2022/04/13 02:52:46;;;;;;;22.13;9.47;;;9.10;73.50;;;;;;5066037;28;20206;-46
2022/04/13 02:55:13;;;;;;;24.57;9.50;;;9.00;73.50;;;;;;5070358;28;20209;-46
2022/04/13 02:57:40;;;;;;;28.53;11.63;;;9.00;73.60;;;;;;5061233;28;20221;-46
2022/04/13 03:00:08;;;;;;;30.93;12.47;;;8.90;73.70;;;;;;5065135;28;20193;-45
2022/04/13 03:02:35;;;;;;;33.10;12.77;;;8.80;73.90;;;;;;5069323;28;20252;-48
2022/04/13 03:05:03;;;;;;;27.37;11.43;;;8.80;74.00;;;;;;5062875;28;20206;-46
2022/04/13 03:07:32;;;;;;;29.70;12.00;;;8.80;73.90;;;;;;5064253;28;20210;-43
2022/04/13 03:09:59;;;;;;;28.83;11.57;;;8.90;74.00;;;;;;5068796;28;20669;-49
2022/04/13 03:12:27;;;;;;;32.30;12.33;;;8.90;73.90;;;;;;5065890;28;20205;-49
2022/04/13 03:14:54;;;;;;;35.20;12.50;;;8.90;73.90;;;;;;5069997;28;20208;-52
2022/04/13 03:17:22;;;;;;;28.80;12.03;;;8.80;73.70;;;;;;5068584;28;20732;-48
2022/04/13 03:19:49;;;;;;;32.00;12.67;;;8.80;73.80;;;;;;5068108;28;20193;-45
2022/04/13 03:22:16;;;;;;;26.77;11.30;;;8.80;73.90;;;;;;5069248;28;20195;-49
2022/04/13 03:24:45;;;;;;;29.33;11.70;;;8.70;73.80;;;;;;5069438;28;20246;-45
2022/04/13 03:27:12;;;;;;;32.47;12.43;;;8.70;74.00;;;;;;5064536;28;20201;-47
2022/04/13 03:29:39;;;;;;;30.77;12.33;;;8.60;74.20;;;;;;5065167;28;20203;-48
2022/04/13 03:32:07;;;;;;;36.50;11.87;;;8.60;74.30;;;;;;5069545;28;20220;-45
2022/04/13 03:34:34;;;;;;;25.57;9.87;;;8.60;74.30;;;;;;5068024;28;20208;-44
2022/04/13 03:37:01;;;;;;;27.67;11.73;;;8.60;74.20;;;;;;5069930;28;20205;-46
2022/04/13 03:39:29;;;;;;;40.40;13.87;;;8.60;74.30;;;;;;5060516;28;20629;-50
2022/04/13 03:41:57;;;;;;;34.00;12.60;;;8.60;74.20;;;;;;5067485;28;20205;-51
2022/04/13 03:44:24;;;;;;;36.10;13.03;;;8.70;74.10;;;;;;5069720;28;20656;-50
2022/04/13 03:46:52;;;;;;;34.37;13.80;;;8.60;74.00;;;;;;5072013;28;20193;-48
2022/04/13 03:49:19;;;;;;;42.57;14.73;;;8.50;74.00;;;;;;5072147;28;20682;-52
2022/04/13 03:51:46;;;;;;;45.73;14.97;;;8.50;74.30;;;;;;5070250;28;20201;-50
2022/04/13 03:54:13;;;;;;;42.80;15.07;;;8.50;74.20;;;;;;5065752;28;20202;-50
2022/04/13 03:56:40;;;;;;;38.23;13.47;;;8.50;74.20;;;;;;5072657;28;20209;-51
2022/04/13 03:59:09;;;;;;;41.37;14.00;;;8.50;74.20;;;;;;5069195;28;20667;-50
2022/04/13 04:01:36;;;;;;;48.20;15.70;;;8.40;74.20;;;;;;5073172;28;20296;-51
2022/04/13 04:04:03;;;;;;;48.83;15.00;;;8.40;74.20;;;;;;5071637;28;20193;-52
2022/04/13 04:06:31;;;;;;;45.97;15.87;;;8.50;74.20;;;;;;5073751;28;20203;-52
2022/04/13 04:08:58;;;;;;;46.57;15.27;;;8.50;74.00;;;;;;5055200;28;20198;-51
2022/04/13 04:11:25;;;;;;;50.87;15.17;;;8.50;73.90;;;;;;5073248;28;20192;-52
2022/04/13 04:13:52;;;;;;;49.03;14.33;;;8.50;73.80;;;;;;5066773;28;20201;-49
2022/04/13 04:16:20;;;;;;;44.37;14.57;;;8.50;73.80;;;;;;5071916;28;20240;-42
2022/04/13 04:18:48;;;;;;;46.53;14.83;;;8.40;73.90;;;;;;5068569;28;20209;-48
2022/04/13 04:21:16;;;;;;;36.50;13.03;;;8.40;73.90;;;;;;5072010;28;20247;-51
2022/04/13 04:23:43;;;;;;;37.13;11.77;;;8.40;74.00;;;;;;5061056;28;20197;-48
2022/04/13 04:26:12;;;;;;;47.70;14.47;;;8.40;74.00;;;;;;5072658;28;20204;-51
2022/04/13 04:28:39;;;;;;;43.20;14.13;;;8.40;74.10;;;;;;5063185;28;20205;-51
2022/04/13 04:31:06;;;;;;;42.90;14.43;;;8.30;74.10;;;;;;5072140;28;20189;-44
2022/04/13 04:33:35;;;;;;;46.77;16.30;;;8.40;74.30;;;;;;5071563;28;20199;-47
2022/04/13 04:36:02;;;;;;;43.67;15.50;;;8.40;74.30;;;;;;5073238;28;20553;-41
2022/04/13 04:38:32;;;;;;;45.13;14.50;;;8.40;74.20;;;;;;5070879;28;20209;-48
2022/04/13 04:40:59;;;;;;;40.77;14.03;;;8.50;74.30;;;;;;5071559;28;20297;-49
2022/04/13 04:43:26;;;;;;;42.83;14.13;;;8.50;74.30;;;;;;5072843;28;20698;-48
2022/04/13 04:45:54;;;;;;;42.70;13.77;;;8.40;74.20;;;;;;5070901;28;20201;-50
2022/04/13 04:48:21;;;;;;;47.30;16.07;;;8.50;74.40;;;;;;5061150;28;20180;-47
2022/04/13 04:50:49;;;;;;;43.43;13.37;;;8.50;74.40;;;;;;5072171;28;20205;-43
2022/04/13 04:53:16;;;;;;;41.50;13.80;;;8.50;74.30;;;;;;5063213;28;20603;-47
2022/04/13 04:55:44;;;;;;;57.33;16.67;;;8.50;74.30;;;;;;5071548;28;20542;-49
2022/04/13 04:58:12;;;;;;;46.77;15.00;;;8.50;74.40;;;;;;5062487;28;20216;-48
2022/04/13 05:00:39;;;;;;;49.20;15.30;;;8.60;74.50;;;;;;5072350;28;20197;-43
2022/04/13 05:03:08;;;;;;;44.63;14.50;;;8.60;74.50;;;;;;5070476;28;20202;-42
2022/04/13 05:05:39;;;;;;;43.97;14.93;;;8.60;74.40;;;;;;5065243;28;20205;-40
2022/04/13 05:08:08;;;;;;;40.53;13.87;;;8.60;74.50;;;;;;5072265;28;20189;-41
2022/04/13 05:10:36;;;;;;;36.77;12.07;;;8.60;74.50;;;;;;5072256;28;20192;-43
2022/04/13 05:13:03;;;;;;;43.90;13.73;;;8.70;74.50;;;;;;5065243;28;20200;-42
2022/04/13 05:15:30;;;;;;;55.57;18.37;;;8.70;74.70;;;;;;5063968;28;20215;-43
2022/04/13 05:17:57;;;;;;;49.97;16.97;;;8.70;74.80;;;;;;5068307;28;20196;-42
2022/04/13 05:20:25;;;;;;;41.50;15.50;;;8.80;74.80;;;;;;5065153;28;20288;-42
2022/04/13 05:22:52;;;;;;;47.73;17.87;;;8.90;74.80;;;;;;5058372;28;20196;-43
2022/04/13 05:25:20;;;;;;;50.63;20.27;;;9.00;75.20;;;;;;5072223;28;20194;-43
2022/04/13 05:27:48;;;;;;;41.20;17.73;;;9.00;76.00;;;;;;5061410;28;20185;-42
2022/04/13 05:30:15;;;;;;;44.93;19.60;;;9.00;77.00;;;;;;5072306;28;20212;-41
2022/04/13 05:32:50;;;;;;;43.33;19.33;;;8.90;77.60;;;;;;5068692;28;20559;-45
2022/04/13 05:35:17;;;;;;;36.53;17.43;;;8.90;77.80;;;;;;5071370;28;20199;-41
2022/04/13 05:37:44;;;;;;;45.43;20.73;;;8.90;77.80;;;;;;5068583;28;20212;-41
2022/04/13 05:40:12;;;;;;;51.37;23.57;;;8.90;77.90;;;;;;5068902;28;20216;-45
2022/04/13 05:42:41;;;;;;;61.53;25.20;;;8.90;77.90;;;;;;5068505;28;20600;-43
2022/04/13 05:45:09;;;;;;;41.13;18.50;;;8.90;77.70;;;;;;5066752;28;20241;-43
2022/04/13 05:47:37;;;;;;;53.27;23.30;;;9.00;77.50;;;;;;5065078;28;20548;-45
2022/04/13 05:50:05;;;;;;;66.87;26.77;;;9.00;77.30;;;;;;5069370;28;20193;-42
2022/04/13 05:52:32;;;;;;;66.10;28.03;;;9.00;76.90;;;;;;5064542;28;20190;-45
2022/04/13 05:54:59;;;;;;;58.27;25.27;;;9.10;76.90;;;;;;5066920;28;20660;-42
2022/04/13 05:57:27;;;;;;;51.90;21.50;;;9.10;76.70;;;;;;5070122;28;20534;-44
2022/04/13 05:59:55;;;;;;;39.77;17.57;;;9.20;76.40;;;;;;5070111;28;20213;-43
2022/04/13 06:02:22;;;;;;;37.20;14.67;;;9.20;76.00;;;;;;5068437;28;20561;-46
2022/04/13 06:04:49;;;;;;;34.83;13.10;;;9.30;75.20;;;;;;5068270;28;20204;-43
2022/04/13 06:07:17;;;;;;;25.23;11.23;;;9.40;74.00;;;;;;5068427;28;20199;-45
2022/04/13 06:09:44;;;;;;;24.63;11.33;;;9.50;72.90;;;;;;5062009;28;20198;-43
2022/04/13 06:12:11;;;;;;;27.57;11.03;;;9.60;72.10;;;;;;5069733;28;20590;-42
2022/04/13 06:14:39;;;;;;;25.30;10.50;;;9.70;71.50;;;;;;5060514;28;20263;-42
2022/04/13 06:17:07;;;;;;;28.73;12.37;;;9.80;71.20;;;;;;5066645;28;20278;-45
2022/04/13 06:19:34;;;;;;;29.23;12.17;;;9.80;70.50;;;;;;5060406;28;20214;-44
2022/04/13 06:22:01;;;;;;;21.47;9.23;;;9.90;70.20;;;;;;5068008;28;20208;-43
2022/04/13 06:24:28;;;;;;;15.47;8.70;;;9.90;70.30;;;;;;5066471;28;20674;-47
2022/04/13 06:26:55;;;;;;;14.47;6.80;;;9.90;70.60;;;;;;5070768;28;20195;-45
2022/04/13 06:29:23;;;;;;;11.10;6.40;;;10.00;69.70;;;;;;5069771;28;20641;-42
2022/04/13 06:31:50;;;;;;;31.07;11.03;;;10.00;69.70;;;;;;5061328;28;20222;-46
2022/04/13 06:34:18;;;;;;;17.43;9.00;;;10.10;69.80;;;;;;5066381;28;20203;-42
2022/04/13 06:36:45;;;;;;;23.50;10.13;;;10.20;69.60;;;;;;5067221;28;20271;-48
2022/04/13 06:39:12;;;;;;;24.47;10.80;;;10.20;69.60;;;;;;5066684;28;20642;-42
2022/04/13 06:41:39;;;;;;;25.90;11.17;;;10.20;69.90;;;;;;5067370;28;20740;-42
2022/04/13 06:44:07;;;;;;;20.23;9.20;;;10.20;70.30;;;;;;5066274;28;20189;-43
2022/04/13 06:46:36;;;;;;;19.27;9.00;;;10.20;70.30;;;;;;5067120;28;20203;-44
2022/04/13 06:49:04;;;;;;;24.73;9.43;;;10.20;70.50;;;;;;5066240;28;20207;-43
2022/04/13 06:51:33;;;;;;;14.30;7.40;;;10.30;70.50;;;;;;5067331;28;20198;-47
2022/04/13 06:54:00;;;;;;;15.13;6.57;;;10.30;70.40;;;;;;5068569;28;20537;-50
2022/04/13 06:56:27;;;;;;;16.63;7.33;;;10.40;70.40;;;;;;5064938;28;20195;-42
2022/04/13 06:58:54;;;;;;;19.47;7.77;;;10.40;70.20;;;;;;5067807;28;20297;-42
2022/04/13 07:01:22;;;;;;;14.67;6.87;;;10.40;69.80;;;;;;5068909;28;20204;-48
2022/04/13 07:03:49;;;;;;;11.40;5.93;;;10.50;69.40;;;;;;5057003;28;20222;-45
2022/04/13 07:06:16;;;;;;;9.27;5.60;;;10.50;69.10;;;;;;5054490;28;20270;-47
2022/04/13 07:08:44;;;;;;;10.33;5.00;;;10.50;69.00;;;;;;5069793;28;20193;-47
2022/04/13 07:11:11;;;;;;;11.77;5.47;;;10.50;69.00;;;;;;5069444;28;20196;-51
2022/04/13 07:13:38;;;;;;;14.87;6.90;;;10.50;68.90;;;;;;5058509;28;20209;-48
2022/04/13 07:16:06;;;;;;;16.07;8.00;;;10.60;68.60;;;;;;5066266;28;20226;-46
2022/04/13 07:18:34;;;;;;;11.87;6.30;;;10.60;68.10;;;;;;5066630;28;20690;-48
2022/04/13 07:21:02;;;;;;;12.10;5.70;;;10.60;67.90;;;;;;5069077;28;20280;-46
2022/04/13 07:23:29;;;;;;;13.13;5.30;;;10.70;68.10;;;;;;5068846;28;20210;-48
2022/04/13 07:25:58;;;;;;;9.37;5.00;;;10.60;67.70;;;;;;5068353;28;20285;-51
2022/04/13 07:28:25;;;;;;;8.97;5.00;;;10.60;67.50;;;;;;5058618;28;20651;-49
2022/04/13 07:30:52;;;;;;;9.57;5.20;;;10.50;67.30;;;;;;5068103;28;20536;-50
2022/04/13 07:33:19;;;;;;;16.70;7.53;;;10.50;67.50;;;;;;5067734;28;20204;-50
2022/04/13 07:35:46;;;;;;;13.37;6.57;;;10.60;67.40;;;;;;5068586;28;20198;-52
2022/04/13 07:38:14;;;;;;;14.50;6.67;;;10.70;67.50;;;;;;5053952;28;20627;-49
2022/04/13 07:40:41;;;;;;;12.07;6.20;;;10.70;67.30;;;;;;5060284;28;20219;-52
2022/04/13 07:43:09;;;;;;;9.37;5.73;;;10.80;67.40;;;;;;5061858;28;20195;-50
2022/04/13 07:45:36;;;;;;;14.37;7.27;;;10.80;67.30;;;;;;5066385;28;20657;-51
2022/04/13 07:48:05;;;;;;;14.60;6.80;;;10.90;67.10;;;;;;5065576;28;20305;-49
2022/04/13 07:50:32;;;;;;;16.83;7.87;;;10.90;67.10;;;;;;5067010;28;20223;-50
2022/04/13 07:53:00;;;;;;;13.17;6.43;;;10.90;67.00;;;;;;5068081;28;20257;-49
2022/04/13 07:55:27;;;;;;;17.77;7.33;;;11.00;66.90;;;;;;5067527;28;20208;-51
2022/04/13 07:57:54;;;;;;;15.27;6.83;;;11.00;66.60;;;;;;5067897;28;20202;-52
2022/04/13 08:00:22;;;;;;;13.23;6.30;;;11.10;66.50;;;;;;5067537;28;20569;-51
2022/04/13 08:02:51;;;;;;;9.20;5.03;;;11.10;66.00;;;;;;5065634;28;20208;-51
2022/04/13 08:05:18;;;;;;;11.27;5.67;;;11.10;65.60;;;;;;5066182;28;20217;-50
2022/04/13 08:07:45;;;;;;;9.73;5.60;;;11.10;65.20;;;;;;5064934;28;20191;-48
2022/04/13 08:10:13;;;;;;;11.07;5.43;;;11.10;64.40;;;;;;5064504;28;20250;-46
2022/04/13 08:12:41;;;;;;;9.10;5.20;;;11.10;63.80;;;;;;5067236;28;20205;-42
2022/04/13 08:15:09;;;;;;;15.03;6.17;;;11.20;63.70;;;;;;5068790;28;20585;-44
2022/04/13 08:17:39;;;;;;;11.40;5.40;;;11.30;63.20;;;;;;5063264;28;20237;-48
2022/04/13 08:20:08;;;;;;;12.20;6.23;;;11.30;63.00;;;;;;5067390;28;20205;-46
2022/04/13 08:22:35;;;;;;;13.67;6.70;;;11.30;62.80;;;;;;5056538;28;20194;-43
2022/04/13 08:25:03;;;;;;;13.50;6.57;;;11.40;62.60;;;;;;5067152;28;20690;-46
2022/04/13 08:27:30;;;;;;;10.27;5.83;;;11.40;62.50;;;;;;5059137;28;20214;-44
2022/04/13 08:29:57;;;;;;;11.23;6.40;;;11.40;62.40;;;;;;5067490;28;20256;-41
2022/04/13 08:32:24;;;;;;;14.20;6.83;;;11.50;63.00;;;;;;5068661;28;20193;-43
2022/04/13 08:34:53;;;;;;;15.23;6.77;;;11.50;62.00;;;;;;5065041;28;20204;-42
2022/04/13 08:37:20;;;;;;;9.07;5.70;;;11.50;61.70;;;;;;5063277;28;20277;-45
2022/04/13 08:39:48;;;;;;;16.97;7.23;;;11.50;61.90;;;;;;5067478;28;20217;-45
2022/04/13 08:42:18;;;;;;;10.80;5.70;;;11.50;61.70;;;;;;5060501;28;20302;-42
2022/04/13 08:44:51;;;;;;;10.13;6.07;;;11.60;62.00;;;;;;5066556;28;20205;-42
2022/04/13 08:47:19;;;;;;;11.73;5.70;;;11.60;62.00;;;;;;5061427;28;20193;-43
2022/04/13 08:49:50;;;;;;;15.63;6.93;;;11.70;62.10;;;;;;5063656;28;20203;-43
2022/04/13 08:52:22;;;;;;;15.03;6.47;;;11.70;61.40;;;;;;5070239;28;20691;-47
2022/04/13 08:55:04;;;;;;;10.63;5.50;;;11.70;61.00;;;;;;5071317;28;20723;-43
2022/04/13 08:57:36;;;;;;;10.33;5.70;;;11.80;61.20;;;;;;5072050;28;20226;-44
2022/04/13 09:00:14;;;;;;;15.00;5.83;;;11.90;61.00;;;;;;5064708;28;20671;-42
2022/04/13 09:02:56;;;;;;;9.27;5.27;;;11.90;60.80;;;;;;5065490;28;20556;-46
2022/04/13 09:05:26;;;;;;;9.17;4.90;;;12.00;60.90;;;;;;5071606;28;20201;-43
2022/04/13 09:08:05;;;;;;;10.63;5.13;;;12.10;60.70;;;;;;5067743;28;20599;-43
2022/04/13 09:10:33;;;;;;;11.07;5.30;;;12.20;60.50;;;;;;5063956;28;20253;-42
2022/04/13 09:13:00;;;;;;;10.93;5.50;;;12.20;60.30;;;;;;5071438;28;20201;-43
2022/04/13 09:15:27;;;;;;;7.13;4.60;;;12.30;60.20;;;;;;5060338;28;20197;-45
2022/04/13 09:17:56;;;;;;;8.17;4.87;;;12.30;60.20;;;;;;5067939;28;20193;-45
2022/04/13 09:20:23;;;;;;;11.33;5.80;;;12.40;60.30;;;;;;5071215;28;20749;-48
2022/04/13 09:22:54;;;;;;;13.10;5.70;;;12.50;60.80;;;;;;5070571;28;20602;-44
2022/04/13 09:25:24;;;;;;;15.47;7.53;;;12.60;59.90;;;;;;5072021;28;20603;-46
2022/04/13 09:27:52;;;;;;;17.27;7.90;;;12.60;59.10;;;;;;5061461;28;20284;-44
2022/04/13 09:30:19;;;;;;;15.90;7.30;;;12.70;59.00;;;;;;5070681;28;20649;-48
2022/04/13 09:32:46;;;;;;;15.57;7.23;;;12.70;58.70;;;;;;5065785;28;20197;-47
2022/04/13 09:35:13;;;;;;;12.57;7.03;;;12.70;59.20;;;;;;5071299;28;20212;-45
2022/04/13 09:37:41;;;;;;;15.17;6.63;;;12.80;58.50;;;;;;5070203;28;20197;-47
2022/04/13 09:40:10;;;;;;;10.67;6.37;;;12.90;58.50;;;;;;5058491;28;20312;-49
2022/04/13 09:42:43;;;;;;;10.13;5.67;;;12.90;58.20;;;;;;5056681;28;20728;-45
2022/04/13 09:45:10;;;;;;;10.23;5.57;;;13.00;58.10;;;;;;5083535;28;20205;-47
2022/04/13 09:47:37;;;;;;;6.07;4.50;;;13.10;58.20;;;;;;5063671;28;20208;-43
2022/04/13 09:50:05;;;;;;;10.67;5.70;;;13.10;58.10;;;;;;5057865;28;20200;-51
2022/04/13 09:52:39;;;;;;;9.60;5.00;;;13.20;57.80;;;;;;5070921;28;20232;-47
2022/04/13 09:55:07;;;;;;;15.03;6.37;;;13.40;57.60;;;;;;5071637;28;20288;-45
2022/04/13 09:57:35;;;;;;;9.83;5.33;;;13.50;56.70;;;;;;5071118;28;20204;-42
2022/04/13 10:00:07;;;;;;;7.87;4.13;;;13.60;56.40;;;;;;5063524;28;20209;-48
2022/04/13 10:02:40;;;;;;;11.17;5.00;;;13.80;56.60;;;;;;5056396;28;20199;-47
2022/04/13 10:05:09;;;;;;;13.00;4.87;;;13.90;56.20;;;;;;5071045;28;20686;-51
2022/04/13 10:07:37;;;;;;;11.57;5.07;;;14.10;56.00;;;;;;5064224;28;20690;-51
2022/04/13 10:10:05;;;;;;;7.77;4.80;;;14.20;55.30;;;;;;5063629;28;20557;-51
2022/04/13 10:12:47;;;;;;;9.20;5.10;;;14.40;55.00;;;;;;5069001;28;20205;-51
2022/04/13 10:15:16;;;;;;;9.33;5.13;;;14.50;54.40;;;;;;5068447;28;20205;-46
2022/04/13 10:17:43;;;;;;;7.30;4.70;;;14.60;53.30;;;;;;5064021;28;20201;-47
2022/04/13 10:20:11;;;;;;;15.27;5.50;;;14.70;53.40;;;;;;5062116;28;20546;-51
2022/04/13 10:22:56;;;;;;;10.33;5.17;;;14.80;52.60;;;;;;5070429;28;20202;-46
2022/04/13 10:25:25;;;;;;;7.17;4.40;;;14.80;51.60;;;;;;5057105;28;20268;-48
2022/04/13 10:27:56;;;;;;;7.33;4.73;;;14.80;52.20;;;;;;5059897;28;20316;-50
2022/04/13 10:30:29;;;;;;;8.20;4.37;;;14.90;51.70;;;;;;5070270;28;20203;-52
2022/04/13 10:33:03;;;;;;;8.73;5.00;;;14.90;51.40;;;;;;5066400;28;20211;-52
2022/04/13 10:35:33;;;;;;;10.50;5.13;;;15.00;51.10;;;;;;5071119;28;20203;-51
2022/04/13 10:38:00;;;;;;;12.07;5.37;;;15.10;50.90;;;;;;5070175;28;20199;-48
2022/04/13 10:40:31;;;;;;;8.87;5.13;;;15.20;50.80;;;;;;5068078;28;20313;-51
2022/04/13 10:43:00;;;;;;;9.73;4.93;;;15.30;50.20;;;;;;5055446;28;20269;-52
2022/04/13 10:45:30;;;;;;;13.63;4.10;;;15.40;50.00;;;;;;5070901;28;20276;-51
2022/04/13 10:48:02;;;;;;;14.33;4.53;;;15.60;49.60;;;;;;5063142;28;20213;-53
2022/04/13 10:50:33;;;;;;;7.37;4.27;;;15.70;49.00;;;;;;5069972;28;20189;-50
2022/04/13 10:53:10;;;;;;;6.93;3.33;;;15.80;49.00;;;;;;5064872;28;20207;-52
2022/04/13 10:55:38;;;;;;;8.83;3.83;;;15.80;48.90;;;;;;5064356;28;20215;-49
2022/04/13 10:58:10;;;;;;;9.27;4.40;;;15.80;48.50;;;;;;5064520;28;20210;-52
2022/04/13 11:00:41;;;;;;;6.70;3.93;;;15.90;46.70;;;;;;5069879;28;20618;-50
2022/04/13 11:03:08;;;;;;;8.47;4.10;;;15.90;47.00;;;;;;5068208;28;20204;-45
2022/04/13 11:05:35;;;;;;;6.87;3.70;;;15.80;46.60;;;;;;5052017;28;20196;-49
2022/04/13 11:08:17;;;;;;;7.13;3.70;;;15.90;46.50;;;;;;5068497;28;20204;-48
2022/04/13 11:10:47;;;;;;;13.20;5.43;;;15.80;46.00;;;;;;5058216;28;20201;-52
2022/04/13 11:13:15;;;;;;;9.73;3.90;;;15.80;45.00;;;;;;5057318;28;20239;-46
2022/04/13 11:15:45;;;;;;;5.67;3.83;;;15.70;45.40;;;;;;5068668;28;20231;-47
2022/04/13 11:18:13;;;;;;;8.10;3.97;;;15.70;45.90;;;;;;5060409;28;20203;-50
2022/04/13 11:21:05;;;;;;;8.07;3.80;;;15.60;45.50;;;;;;5067647;28;20212;-43
2022/04/13 11:23:55;;;;;;;6.50;3.20;;;15.60;45.40;;;;;;5068874;28;20568;-42
2022/04/13 11:26:27;;;;;;;5.40;3.47;;;15.50;44.60;;;;;;5069856;28;20196;-44
2022/04/13 11:29:14;;;;;;;7.50;3.70;;;15.50;44.80;;;;;;5069583;28;20631;-45
2022/04/13 11:32:09;;;;;;;6.43;3.47;;;15.40;44.80;;;;;;5068562;28;20197;-45
2022/04/13 11:34:45;;;;;;;5.70;3.57;;;15.50;44.60;;;;;;5068436;28;20706;-44
2022/04/13 11:37:13;;;;;;;9.53;3.40;;;15.40;43.80;;;;;;5070114;28;20192;-45
2022/04/13 11:39:51;;;;;;;7.40;3.03;;;15.30;44.30;;;;;;5061669;28;20203;-43
2022/04/13 11:42:54;;;;;;;5.83;2.83;;;15.40;44.30;;;;;;5057324;28;20222;-43
2022/04/13 11:45:23;;;;;;;8.50;3.47;;;15.50;44.10;;;;;;5058381;28;20195;-41
2022/04/13 11:47:58;;;;;;;12.83;3.57;;;15.60;44.10;;;;;;5060901;28;20200;-48
2022/04/13 11:50:27;;;;;;;8.73;3.97;;;15.70;43.80;;;;;;5067811;28;20197;-42
2022/04/13 11:52:56;;;;;;;3.57;3.10;;;15.70;44.10;;;;;;5064384;28;20285;-45
2022/04/13 11:55:25;;;;;;;10.23;3.80;;;15.90;44.30;;;;;;5069003;28;20286;-46
2022/04/13 11:58:21;;;;;;;8.13;3.93;;;16.00;44.50;;;;;;5068340;28;20291;-42
2022/04/13 12:01:05;;;;;;;6.73;3.80;;;16.20;43.90;;;;;;5066039;28;20220;-43
2022/04/13 12:03:35;;;;;;;6.20;3.77;;;16.30;43.80;;;;;;5065834;28;20201;-46
2022/04/13 12:06:04;;;;;;;7.00;4.00;;;16.30;43.80;;;;;;5067380;28;20204;-42
2022/04/13 12:08:32;;;;;;;6.40;3.90;;;16.40;43.40;;;;;;5064522;28;20204;-45
2022/04/13 12:11:01;;;;;;;7.13;4.07;;;16.40;43.20;;;;;;5057101;28;20687;-46
2022/04/13 12:13:32;;;;;;;7.77;4.40;;;16.40;43.40;;;;;;5068090;28;20246;-42
2022/04/13 12:16:01;;;;;;;6.80;4.10;;;16.50;43.20;;;;;;5067869;28;20289;-44
2022/04/13 12:18:30;;;;;;;8.10;4.70;;;16.60;42.90;;;;;;5065861;28;20656;-42
2022/04/13 12:21:10;;;;;;;5.83;4.23;;;16.60;42.70;;;;;;5068106;28;20209;-49
2022/04/13 12:23:38;;;;;;;8.97;4.37;;;16.60;42.30;;;;;;5059045;28;20210;-45
2022/04/13 12:26:07;;;;;;;5.13;3.90;;;16.50;42.00;;;;;;5072780;28;20205;-47
2022/04/13 12:28:34;;;;;;;6.57;3.90;;;16.60;42.40;;;;;;5069415;28;20200;-48
2022/04/13 12:31:03;;;;;;;6.20;3.50;;;16.70;42.10;;;;;;5071670;28;20201;-41
2022/04/13 12:33:31;;;;;;;7.03;3.50;;;16.70;41.40;;;;;;5054128;28;20203;-44
2022/04/13 12:36:00;;;;;;;5.10;3.50;;;16.70;41.10;;;;;;5065163;28;20270;-43
2022/04/13 12:38:31;;;;;;;6.77;3.77;;;16.80;41.40;;;;;;5072837;28;20201;-47
2022/04/13 12:41:06;;;;;;;5.70;3.40;;;16.80;41.30;;;;;;5072101;28;20213;-43
2022/04/13 12:43:34;;;;;;;8.00;3.60;;;16.90;41.60;;;;;;5059721;28;20275;-44
2022/04/13 12:46:13;;;;;;;6.33;3.43;;;16.90;39.80;;;;;;5067328;28;20193;-47
2022/04/13 12:48:41;;;;;;;6.57;3.30;;;16.90;40.00;;;;;;5059432;28;20200;-45
2022/04/13 12:51:09;;;;;;;3.53;2.73;;;17.00;40.20;;;;;;5067916;28;20196;-52